Airfield :
LOGIN :

Register | Disclaimer

   EN    FR    IT 

 










Legend :    VFR   Marginal VFR   IFR   Intensive IFR   Very Intensive IFR
Visi :
Ceiling :
>= 8 km
>= 3000ft
5 to 8 km
1000 to 3000 ft
1500m to 5 km
500 to 1000 ft
800 to 1500m
200 to 500 ft
< 800m
< 200 ft
Symbols :   Thunderstorms  Fog  Heavy snow  Heavy precipitations  Wind > 20 kt
SIGMETs :     Misc.  Thunderstorms  Icing  Turbulence  Mountain Waves  Volcanic Ashes






- Airport Elevation : 412 ft
- IATA code : ORE


LFOJ - Orleans

CURRENT METAR :
  • 291030Z AUTO VRB03KT 9999 BKN019 OVC024 12/08 Q1002 TEMPO 4500 SHRA SCT015 SCT020TCU

EXPIRED METARs :
  • 291000Z AUTO 27003KT 230V300 9999 BKN018 OVC023 12/08 Q1002 NOSIG
  • 290930Z AUTO VRB03KT 9999 OVC020 11/08 Q1002 NOSIG
  • 290900Z AUTO 24004KT 210V270 9999 OVC018 11/08 Q1001 TEMPO BKN014
  • 290830Z AUTO 27006KT 9999 BKN013 OVC018 11/09 Q1001 BECMG BKN020
  • 290800Z AUTO 26005KT 9999 OVC015 11/09 Q1001 TEMPO BKN008

TAF TAF LFOJ
Valid from the 29 at 09:00 until the 30 at 09:00 UTC


290800Z 2909/3009 26010KT 9999 BKN014 TX15/2914Z TN03/3005Z
BECMG 2910/2912 BKN020
TEMPO 2912/2917 4500 SHRA SCT015 SCT020TCU
BECMG 2918/2920 35005KT
BECMG 3000/3002 3000 BR
PROB30
TEMPO 3003/3006 0800 FG
BECMG 3006/3008 CAVOK



MET'MAP, your aeronautical weather chart ! - Copyright ORBIFLY December 2007 - Disclaimer

ORBIFLY MET'MAP TEAM :

Programming & Development : Alexandra Zaïnal
Original concept : Baudouin d'Aumeries
Technical & hardware support : Manuel Goepfert
Assistance : Marc-Olivier Méhu




SOURCES & CREDITS :

   NOAA